Weather at Beale Air Force Base

Public forecast

Using degrees Fahrenheit for public forecast. Weather courtesy of forecast.io.

Current aviation weather report (METAR) for Beale Air Force Base

Report is more than 2 hours old.

2024/05/28 19:55 (retrieved 4 hours ago)

KBAB 281955Z AUTO 22006G14KT 10SM CLR 27/11 A2996 RMK AO2 SLP148 T02700110

Aviation forecast (TAF) for Beale Air Force Base

2024/05/28 19:03 (retrieved 5 hours ago)

TAF TAF KBAB 281850Z 2819/3001 18009KT 9999 SKC QNH2987INS BECMG 2900/2901 15010G15KT 9999 SKC QNH2987INS BECMG 2906/2907 VRB06KT 9999 SKC QNH2994INS BECMG 2914/2915 32009KT 9999 SKC QNH2993INS TX32/2900Z TN13/2913Z